Time;durP1;ratioP1;P1;durP2;ratioP2;P2;SDS_P1;SDS_P2;PMS_P1;PMS_P2;Temp;Humidity;BMP_temperature;BMP_pressure;BME280_temperature;BME280_humidity;BME280_pressure;Samples;Min_cycle;Max_cycle;Signal;HPM_P1;HPM_P2
2020/12/15 00:01:20;;;;;;;12.98;5.65;;;13.30;99.90;;;;;;4992680;28;20459;-76
2020/12/15 00:03:47;;;;;;;14.13;5.32;;;13.20;99.90;;;;;;4993566;28;20213;-78
2020/12/15 00:06:15;;;;;;;11.32;5.55;;;13.20;99.90;;;;;;4992362;28;20683;-78
2020/12/15 00:08:41;;;;;;;7.15;5.78;;;13.10;99.90;;;;;;4992914;28;21056;-75
2020/12/15 00:11:08;;;;;;;20.60;5.90;;;13.10;99.90;;;;;;4992611;28;20267;-79
2020/12/15 00:13:34;;;;;;;11.43;5.20;;;13.10;99.90;;;;;;4992407;28;20275;-77
2020/12/15 00:16:01;;;;;;;11.43;4.57;;;13.00;99.90;;;;;;4992489;28;20215;-73
2020/12/15 00:18:27;;;;;;;19.27;6.72;;;13.10;99.90;;;;;;4992411;28;20240;-76
2020/12/15 00:20:54;;;;;;;18.20;5.40;;;12.90;99.90;;;;;;4992468;28;20236;-73
2020/12/15 00:23:21;;;;;;;12.65;4.95;;;13.00;99.90;;;;;;4992555;28;20224;-73
2020/12/15 00:25:48;;;;;;;7.38;5.00;;;12.90;99.90;;;;;;4992813;28;20283;-75
2020/12/15 00:28:15;;;;;;;8.23;5.13;;;12.80;99.90;;;;;;4992461;28;20211;-72
2020/12/15 00:30:42;;;;;;;11.45;4.40;;;13.00;99.90;;;;;;4992554;28;20213;-78
2020/12/15 00:33:08;;;;;;;14.07;5.43;;;13.00;99.90;;;;;;4992209;28;20209;-78
2020/12/15 00:35:34;;;;;;;16.55;5.15;;;13.00;99.90;;;;;;4992137;28;20205;-78
2020/12/15 00:38:01;;;;;;;19.60;4.72;;;13.00;99.90;;;;;;4991995;28;20594;-78
2020/12/15 00:40:28;;;;;;;9.73;4.88;;;13.00;99.90;;;;;;4992156;28;20236;-77
2020/12/15 00:42:55;;;;;;;14.00;4.30;;;13.10;99.90;;;;;;4992283;28;20240;-73
2020/12/15 00:45:21;;;;;;;14.25;4.88;;;12.90;99.90;;;;;;4992321;28;20669;-75
2020/12/15 00:47:48;;;;;;;8.65;3.47;;;13.00;99.90;;;;;;4992549;28;20212;-78
2020/12/15 00:50:14;;;;;;;12.27;3.72;;;13.10;99.90;;;;;;4991421;28;20267;-74
2020/12/15 00:52:40;;;;;;;14.43;4.97;;;13.00;99.90;;;;;;4991968;28;20216;-75
2020/12/15 00:55:07;;;;;;;11.00;4.72;;;12.90;99.90;;;;;;4991432;28;20739;-71
2020/12/15 00:57:34;;;;;;;6.03;4.03;;;12.60;99.90;;;;;;4992037;28;20267;-79
2020/12/15 01:00:01;;;;;;;14.57;4.73;;;12.60;99.90;;;;;;4991439;28;20346;-73
2020/12/15 01:02:27;;;;;;;17.55;5.65;;;12.80;99.90;;;;;;4992178;28;20216;-79
2020/12/15 01:04:55;;;;;;;10.02;4.13;;;12.50;99.90;;;;;;4991669;28;20201;-78
2020/12/15 01:07:21;;;;;;;13.00;4.90;;;12.40;99.90;;;;;;4991951;28;20232;-79
2020/12/15 01:09:48;;;;;;;11.73;5.38;;;12.40;99.90;;;;;;4991686;28;20263;-73
2020/12/15 01:12:14;;;;;;;12.73;4.67;;;12.60;99.90;;;;;;4991835;28;20201;-80
2020/12/15 01:14:41;;;;;;;6.72;4.28;;;12.50;99.90;;;;;;4991693;28;20638;-73
2020/12/15 01:17:08;;;;;;;13.65;4.35;;;12.70;99.90;;;;;;4977778;28;20588;-79
2020/12/15 01:19:35;;;;;;;10.65;4.25;;;12.70;99.90;;;;;;4991531;28;20264;-80
2020/12/15 01:22:01;;;;;;;12.45;4.32;;;12.60;99.90;;;;;;4990914;28;20279;-73
2020/12/15 01:24:28;;;;;;;9.52;4.03;;;12.50;99.90;;;;;;4991712;28;20208;-77
2020/12/15 01:26:54;;;;;;;15.43;5.10;;;12.60;99.90;;;;;;4991510;28;20208;-77
2020/12/15 01:29:20;;;;;;;14.70;4.40;;;12.50;99.90;;;;;;4992249;28;20296;-75
2020/12/15 01:31:48;;;;;;;9.77;4.75;;;12.50;99.90;;;;;;4991797;28;20593;-73
2020/12/15 01:34:14;;;;;;;12.10;6.63;;;12.50;99.90;;;;;;4991117;28;20201;-76
2020/12/15 01:36:41;;;;;;;9.73;6.43;;;12.20;99.90;;;;;;4991333;28;20217;-74
2020/12/15 01:39:07;;;;;;;11.82;6.70;;;11.90;99.90;;;;;;4990682;28;20209;-80
2020/12/15 01:41:34;;;;;;;9.00;7.07;;;11.70;99.90;;;;;;4991349;28;20237;-80
2020/12/15 01:44:02;;;;;;;10.43;6.77;;;11.50;99.90;;;;;;4990923;28;20205;-80
2020/12/15 01:46:29;;;;;;;8.60;7.27;;;11.50;99.90;;;;;;4991432;28;20208;-80
2020/12/15 01:48:58;;;;;;;10.40;7.80;;;11.50;99.90;;;;;;4990600;28;20205;-73
2020/12/15 01:51:25;;;;;;;9.25;7.38;;;11.40;99.90;;;;;;4991203;28;20200;-72
2020/12/15 01:53:54;;;;;;;9.47;7.17;;;11.40;99.90;;;;;;4990075;28;20243;-73
2020/12/15 01:56:21;;;;;;;9.23;7.15;;;11.40;99.90;;;;;;4991129;28;20734;-74
2020/12/15 01:58:52;;;;;;;10.67;7.60;;;11.40;99.90;;;;;;4991527;28;20244;-77
2020/12/15 02:01:19;;;;;;;9.83;6.80;;;11.40;99.90;;;;;;4992808;28;20228;-79
2020/12/15 02:03:45;;;;;;;11.10;7.72;;;11.50;99.90;;;;;;4994759;28;20279;-80
2020/12/15 02:06:13;;;;;;;12.77;7.50;;;11.60;99.90;;;;;;4994816;28;20212;-79
2020/12/15 02:08:41;;;;;;;10.00;6.55;;;11.60;99.90;;;;;;4994966;28;20209;-81
2020/12/15 02:11:07;;;;;;;14.17;6.37;;;11.60;99.90;;;;;;4994557;28;20204;-71
2020/12/15 02:13:34;;;;;;;9.17;5.47;;;11.80;99.90;;;;;;4994869;28;20625;-72
2020/12/15 02:16:00;;;;;;;20.17;6.27;;;12.10;99.90;;;;;;4994386;28;20228;-79
2020/12/15 02:18:28;;;;;;;17.70;5.73;;;12.40;99.90;;;;;;4994720;28;20625;-77
2020/12/15 02:20:54;;;;;;;16.97;4.90;;;12.60;99.90;;;;;;4994404;28;20232;-78
2020/12/15 02:23:21;;;;;;;12.50;6.13;;;12.80;99.90;;;;;;4995098;28;20224;-73
2020/12/15 02:25:48;;;;;;;11.07;5.20;;;12.70;99.90;;;;;;4995131;28;20205;-72
2020/12/15 02:28:14;;;;;;;13.38;5.75;;;12.60;99.90;;;;;;4994416;28;20205;-79
2020/12/15 02:30:41;;;;;;;13.37;5.97;;;12.60;99.90;;;;;;4994303;28;20891;-73
2020/12/15 02:33:07;;;;;;;16.43;6.40;;;12.70;99.90;;;;;;4993916;28;20735;-79
2020/12/15 02:35:34;;;;;;;23.05;6.72;;;12.70;99.90;;;;;;4994976;28;20204;-78
2020/12/15 02:38:00;;;;;;;16.92;6.93;;;12.70;99.90;;;;;;4993929;28;20617;-78
2020/12/15 02:40:27;;;;;;;15.63;6.97;;;12.70;99.90;;;;;;4994448;28;20264;-79
2020/12/15 02:42:54;;;;;;;16.35;6.70;;;12.70;99.90;;;;;;4994452;28;20592;-78
2020/12/15 02:45:20;;;;;;;14.50;7.22;;;12.70;99.90;;;;;;4994234;28;20211;-77
2020/12/15 02:47:47;;;;;;;10.95;6.20;;;12.70;99.90;;;;;;4994922;28;20209;-74
2020/12/15 02:50:20;;;;;;;19.08;6.97;;;12.70;99.90;;;;;;4993892;28;20267;-73
2020/12/15 02:52:47;;;;;;;14.90;7.68;;;12.70;99.90;;;;;;4994562;28;20576;-79
2020/12/15 02:55:14;;;;;;;13.52;7.07;;;12.60;99.90;;;;;;4993808;28;20205;-76
2020/12/15 02:57:41;;;;;;;15.65;7.68;;;12.60;99.90;;;;;;4993952;28;20380;-79
2020/12/15 03:00:09;;;;;;;18.83;8.65;;;12.60;99.90;;;;;;4993141;28;20623;-79
2020/12/15 03:02:35;;;;;;;14.57;7.93;;;12.60;99.90;;;;;;4993964;28;20205;-79
2020/12/15 03:05:02;;;;;;;12.63;8.05;;;12.60;99.90;;;;;;4993671;28;20685;-74
2020/12/15 03:07:28;;;;;;;19.45;7.60;;;12.50;99.90;;;;;;4993979;28;20200;-75
2020/12/15 03:09:55;;;;;;;18.60;7.82;;;12.50;99.90;;;;;;4994298;28;20267;-79
2020/12/15 03:12:22;;;;;;;16.23;7.20;;;12.50;99.90;;;;;;4994013;28;20205;-74
2020/12/15 03:14:50;;;;;;;15.23;7.63;;;12.50;99.90;;;;;;4993838;28;20742;-80
2020/12/15 03:17:17;;;;;;;16.65;7.55;;;12.50;99.90;;;;;;4993524;28;20209;-74
2020/12/15 03:19:44;;;;;;;16.75;8.30;;;12.40;99.90;;;;;;4993987;28;20259;-80
2020/12/15 03:22:12;;;;;;;14.82;7.13;;;12.40;99.90;;;;;;4992904;28;20244;-77
2020/12/15 03:24:39;;;;;;;14.23;6.72;;;12.40;99.90;;;;;;4993730;28;20217;-79
2020/12/15 03:27:06;;;;;;;11.15;8.10;;;12.50;99.90;;;;;;4993197;28;20701;-79
2020/12/15 03:29:32;;;;;;;14.63;7.55;;;12.40;99.90;;;;;;4993008;28;20209;-77
2020/12/15 03:31:59;;;;;;;13.88;7.70;;;12.40;99.90;;;;;;4993458;28;20263;-79
2020/12/15 03:34:26;;;;;;;15.80;7.40;;;12.40;99.90;;;;;;4993285;28;20205;-78
2020/12/15 03:36:52;;;;;;;16.42;8.18;;;12.40;99.90;;;;;;4993406;28;20676;-78
2020/12/15 03:39:19;;;;;;;11.75;7.45;;;12.40;99.90;;;;;;4993040;28;20750;-78
2020/12/15 03:41:45;;;;;;;12.60;7.70;;;12.30;99.90;;;;;;4993299;28;20236;-79
2020/12/15 03:44:12;;;;;;;12.05;6.93;;;12.30;99.90;;;;;;4991371;28;20204;-78
2020/12/15 03:46:38;;;;;;;11.10;7.30;;;12.30;99.90;;;;;;4993388;28;20272;-80
2020/12/15 03:49:05;;;;;;;14.43;8.10;;;12.30;99.90;;;;;;4993055;28;20205;-79
2020/12/15 03:51:32;;;;;;;14.68;8.18;;;12.30;99.90;;;;;;4993224;28;20236;-74
2020/12/15 03:53:58;;;;;;;14.30;7.70;;;12.30;99.90;;;;;;4992630;28;20209;-78
2020/12/15 03:56:25;;;;;;;13.95;7.28;;;12.30;99.90;;;;;;4992725;28;20751;-78
2020/12/15 03:58:51;;;;;;;12.75;7.22;;;12.20;99.90;;;;;;4993218;28;20631;-75
2020/12/15 04:01:18;;;;;;;13.88;7.68;;;12.20;99.90;;;;;;4992519;28;20228;-73
2020/12/15 04:03:44;;;;;;;16.98;8.50;;;12.20;99.90;;;;;;4993042;28;20217;-74
2020/12/15 04:06:11;;;;;;;13.73;6.97;;;12.20;99.90;;;;;;4992668;28;20292;-80
2020/12/15 04:08:38;;;;;;;15.45;8.10;;;12.20;99.90;;;;;;4991994;28;20209;-81
2020/12/15 04:11:04;;;;;;;11.90;7.72;;;12.20;99.90;;;;;;4992326;28;20252;-79
2020/12/15 04:13:31;;;;;;;12.63;8.88;;;12.20;99.90;;;;;;4992568;28;20216;-75
2020/12/15 04:15:57;;;;;;;12.55;7.90;;;12.30;99.90;;;;;;4992137;28;20590;-75
2020/12/15 04:18:24;;;;;;;15.43;8.57;;;12.30;99.90;;;;;;4992411;28;20209;-75
2020/12/15 04:20:51;;;;;;;11.75;7.50;;;12.30;99.90;;;;;;4992551;28;20240;-77
2020/12/15 04:23:19;;;;;;;19.40;8.35;;;12.30;99.90;;;;;;4991473;28;20328;-75
2020/12/15 04:25:52;;;;;;;14.48;7.65;;;12.30;99.90;;;;;;4992324;28;20209;-79
2020/12/15 04:28:19;;;;;;;14.85;7.43;;;12.30;99.90;;;;;;4991931;28;20731;-78
2020/12/15 04:30:45;;;;;;;14.65;8.07;;;12.30;99.90;;;;;;4991814;28;20750;-74
2020/12/15 04:33:12;;;;;;;20.92;7.72;;;12.30;99.90;;;;;;4986476;28;20205;-78
2020/12/15 04:35:38;;;;;;;14.77;6.75;;;12.40;99.90;;;;;;4989885;28;20672;-78
2020/12/15 04:38:05;;;;;;;10.88;7.00;;;12.50;99.90;;;;;;4990193;28;20205;-75
2020/12/15 04:40:33;;;;;;;13.63;7.00;;;12.50;99.90;;;;;;4990286;28;20720;-78
2020/12/15 04:43:02;;;;;;;12.40;7.47;;;12.50;99.90;;;;;;4991264;28;20687;-76
2020/12/15 04:45:28;;;;;;;19.30;8.75;;;12.50;99.90;;;;;;4991949;28;20232;-75
2020/12/15 04:48:03;;;;;;;17.02;7.80;;;12.40;99.90;;;;;;4991927;28;20704;-73
2020/12/15 04:50:33;;;;;;;14.50;6.68;;;12.30;99.90;;;;;;4991905;28;20647;-77
2020/12/15 04:53:06;;;;;;;11.48;7.30;;;12.30;99.90;;;;;;4991379;28;20212;-78
2020/12/15 04:55:34;;;;;;;13.37;7.27;;;12.30;99.90;;;;;;4991867;28;20201;-74
2020/12/15 04:58:02;;;;;;;12.43;7.47;;;12.30;99.90;;;;;;4991213;28;20643;-75
2020/12/15 05:00:28;;;;;;;13.32;7.55;;;12.20;99.90;;;;;;4991644;28;20688;-74
2020/12/15 05:02:57;;;;;;;12.43;7.93;;;12.20;99.90;;;;;;4990805;28;20373;-73
2020/12/15 05:05:24;;;;;;;9.82;7.20;;;12.20;99.90;;;;;;4991747;28;20216;-73
2020/12/15 05:07:51;;;;;;;10.30;7.93;;;12.10;99.90;;;;;;4992331;28;20243;-75
2020/12/15 05:10:20;;;;;;;10.20;8.20;;;12.10;99.90;;;;;;4991482;28;20244;-74
2020/12/15 05:12:48;;;;;;;15.07;10.05;;;12.00;99.90;;;;;;4991673;28;20217;-79
2020/12/15 05:15:16;;;;;;;16.73;10.35;;;11.90;99.90;;;;;;4991212;28;20251;-75
2020/12/15 05:17:42;;;;;;;19.67;8.48;;;11.80;99.90;;;;;;4977805;28;20249;-78
2020/12/15 05:20:10;;;;;;;14.30;8.83;;;11.80;99.90;;;;;;4991402;28;20209;-74
2020/12/15 05:22:41;;;;;;;9.90;8.90;;;11.60;99.90;;;;;;4991051;28;20220;-76
2020/12/15 05:25:08;;;;;;;10.40;8.98;;;11.40;99.90;;;;;;4991207;28;20251;-81
2020/12/15 05:27:40;;;;;;;19.57;9.70;;;11.20;99.90;;;;;;4991424;28;20209;-79
2020/12/15 05:30:09;;;;;;;12.73;9.43;;;11.20;99.90;;;;;;4991091;28;20216;-80
2020/12/15 05:32:37;;;;;;;13.40;9.90;;;11.30;99.90;;;;;;4991288;28;20583;-75
2020/12/15 05:35:10;;;;;;;12.97;9.63;;;11.30;99.90;;;;;;4990872;28;20240;-74
2020/12/15 05:37:42;;;;;;;11.20;9.43;;;11.30;99.90;;;;;;4991294;28;20213;-78
2020/12/15 05:40:08;;;;;;;12.30;9.90;;;11.20;99.90;;;;;;4990513;28;20245;-79
2020/12/15 05:42:36;;;;;;;11.77;9.23;;;11.10;99.90;;;;;;4991090;28;20212;-79
2020/12/15 05:45:03;;;;;;;16.00;10.50;;;11.10;99.90;;;;;;4990948;28;20299;-76
2020/12/15 05:47:32;;;;;;;18.83;10.00;;;11.20;99.90;;;;;;4991080;28;20754;-80
2020/12/15 05:49:59;;;;;;;14.97;9.73;;;11.10;99.90;;;;;;4990832;28;20252;-75
2020/12/15 05:52:26;;;;;;;13.67;10.77;;;10.90;99.90;;;;;;4991161;28;20763;-79
2020/12/15 05:55:07;;;;;;;10.97;9.87;;;10.80;99.90;;;;;;4990940;28;20223;-78
2020/12/15 05:57:33;;;;;;;11.20;9.60;;;10.70;99.90;;;;;;4991294;28;20204;-78
2020/12/15 06:00:11;;;;;;;18.13;11.13;;;10.60;99.90;;;;;;4990329;28;20263;-79
2020/12/15 06:02:38;;;;;;;16.63;9.50;;;10.60;99.90;;;;;;4991069;28;20240;-81
2020/12/15 06:05:06;;;;;;;13.33;9.43;;;10.60;99.90;;;;;;4990210;28;20213;-75
2020/12/15 06:07:33;;;;;;;22.40;9.23;;;10.60;99.90;;;;;;4990875;28;20209;-78
2020/12/15 06:10:01;;;;;;;13.67;9.97;;;10.60;99.90;;;;;;4990650;28;20230;-78
2020/12/15 06:12:27;;;;;;;14.60;9.47;;;10.60;99.90;;;;;;4990910;28;20292;-76
2020/12/15 06:14:54;;;;;;;12.17;9.53;;;10.60;99.90;;;;;;4990853;28;20567;-81
2020/12/15 06:17:21;;;;;;;13.10;10.90;;;10.50;99.90;;;;;;4990953;28;20677;-79
2020/12/15 06:19:52;;;;;;;16.00;10.53;;;10.40;99.90;;;;;;4991171;28;20213;-76
2020/12/15 06:22:21;;;;;;;15.07;11.13;;;10.30;99.90;;;;;;4990295;28;20677;-79
2020/12/15 06:24:55;;;;;;;14.57;11.03;;;10.20;99.90;;;;;;4991478;28;20267;-79
2020/12/15 06:27:30;;;;;;;14.83;11.07;;;10.20;99.90;;;;;;4990635;28;20576;-74
2020/12/15 06:29:57;;;;;;;13.40;9.87;;;10.10;99.90;;;;;;4990546;28;20209;-74
2020/12/15 06:32:23;;;;;;;14.10;10.07;;;10.00;99.90;;;;;;4990794;28;20209;-72
2020/12/15 06:34:52;;;;;;;15.23;9.80;;;10.00;99.90;;;;;;4991228;28;20240;-83
2020/12/15 06:37:20;;;;;;;15.83;11.03;;;9.80;99.90;;;;;;4990674;28;20696;-79
2020/12/15 06:39:58;;;;;;;13.57;10.27;;;9.90;99.90;;;;;;4991208;28;20214;-80
2020/12/15 06:42:25;;;;;;;14.43;11.03;;;9.70;99.90;;;;;;4990637;28;20688;-78
2020/12/15 06:45:04;;;;;;;21.93;12.93;;;9.90;99.90;;;;;;4990856;28;20666;-75
2020/12/15 06:47:31;;;;;;;15.00;11.03;;;9.80;99.90;;;;;;4992667;28;20213;-75
2020/12/15 06:50:09;;;;;;;22.37;13.37;;;9.70;99.90;;;;;;4994101;28;20252;-74
2020/12/15 06:52:35;;;;;;;17.50;12.17;;;9.60;99.90;;;;;;4994280;28;20253;-79
2020/12/15 06:55:01;;;;;;;19.77;11.33;;;9.60;99.90;;;;;;4993822;28;20205;-74
2020/12/15 06:57:32;;;;;;;13.60;11.20;;;9.70;99.90;;;;;;4994225;28;20209;-80
2020/12/15 07:00:00;;;;;;;14.43;10.73;;;9.70;99.90;;;;;;4993862;28;20213;-74
2020/12/15 07:02:31;;;;;;;19.37;11.80;;;9.70;99.90;;;;;;4994002;28;20232;-82
2020/12/15 07:05:18;;;;;;;22.60;13.97;;;9.70;99.90;;;;;;4993860;28;20240;-82
2020/12/15 07:07:48;;;;;;;22.73;13.27;;;9.60;99.90;;;;;;4993609;28;20634;-80
2020/12/15 07:10:15;;;;;;;16.20;11.87;;;9.60;99.90;;;;;;4993496;28;20664;-81
2020/12/15 07:12:42;;;;;;;14.57;12.47;;;9.60;99.90;;;;;;4994482;28;20270;-74
2020/12/15 07:15:11;;;;;;;15.37;11.73;;;9.60;99.90;;;;;;4993751;28;20246;-75
2020/12/15 07:17:41;;;;;;;14.50;12.93;;;9.70;99.90;;;;;;4993470;28;20639;-81
2020/12/15 07:20:07;;;;;;;14.73;12.33;;;9.70;99.90;;;;;;4993459;28;20671;-78
2020/12/15 07:22:35;;;;;;;19.47;13.10;;;9.70;99.90;;;;;;4993219;28;20734;-78
2020/12/15 07:25:02;;;;;;;18.33;14.00;;;9.80;99.90;;;;;;4993626;28;20610;-73
2020/12/15 07:27:32;;;;;;;15.20;13.60;;;9.90;99.90;;;;;;4983611;28;20706;-79
2020/12/15 07:29:58;;;;;;;14.87;12.20;;;9.90;99.90;;;;;;4993068;28;20213;-73
2020/12/15 07:32:25;;;;;;;18.73;13.37;;;9.90;99.90;;;;;;4991734;28;20308;-74
2020/12/15 07:35:00;;;;;;;19.17;12.70;;;9.90;99.90;;;;;;4991728;28;20334;-74
2020/12/15 07:37:27;;;;;;;22.60;14.00;;;9.90;99.90;;;;;;4992936;28;20230;-80
2020/12/15 07:39:55;;;;;;;20.93;15.20;;;9.90;99.90;;;;;;4993328;28;20209;-79
2020/12/15 07:42:22;;;;;;;22.03;13.87;;;10.00;99.90;;;;;;4993565;28;20240;-79
2020/12/15 07:44:57;;;;;;;20.63;12.40;;;10.10;99.90;;;;;;4993343;28;20208;-80
2020/12/15 07:47:25;;;;;;;17.20;13.43;;;10.10;99.90;;;;;;4992994;28;20668;-78
2020/12/15 07:49:54;;;;;;;17.80;12.50;;;10.20;99.90;;;;;;4992086;28;20204;-75
2020/12/15 07:52:33;;;;;;;19.73;14.30;;;10.30;99.90;;;;;;4985435;28;20213;-75
2020/12/15 07:55:04;;;;;;;21.67;14.20;;;10.40;99.90;;;;;;4990722;28;20632;-77
2020/12/15 07:57:32;;;;;;;22.97;15.10;;;10.50;99.90;;;;;;4988947;28;20244;-73
2020/12/15 08:00:04;;;;;;;17.43;12.73;;;10.50;99.90;;;;;;4989339;28;20213;-74
2020/12/15 08:02:30;;;;;;;16.97;12.90;;;10.40;99.90;;;;;;4992544;28;20708;-78
2020/12/15 08:05:13;;;;;;;15.33;12.27;;;10.40;99.90;;;;;;4992519;28;20216;-74
2020/12/15 08:07:48;;;;;;;17.00;12.30;;;10.40;99.90;;;;;;4992756;28;20644;-78
2020/12/15 08:10:22;;;;;;;18.77;13.97;;;10.50;99.90;;;;;;4991953;28;20699;-77
2020/12/15 08:12:48;;;;;;;20.73;13.13;;;10.50;99.90;;;;;;4992995;28;20208;-77
2020/12/15 08:15:15;;;;;;;17.70;13.60;;;10.60;99.90;;;;;;4992267;28;20247;-77
2020/12/15 08:17:45;;;;;;;21.17;12.60;;;10.70;99.90;;;;;;4992367;28;20628;-77
2020/12/15 08:20:14;;;;;;;20.57;13.70;;;10.60;99.90;;;;;;4991823;28;20311;-76
2020/12/15 08:22:42;;;;;;;18.63;13.43;;;10.60;99.90;;;;;;4991796;28;20237;-76
2020/12/15 08:25:10;;;;;;;21.47;13.20;;;10.60;99.90;;;;;;4986030;28;20201;-76
2020/12/15 08:27:38;;;;;;;18.97;12.70;;;10.70;99.90;;;;;;4992412;28;20240;-76
2020/12/15 08:30:19;;;;;;;19.23;13.73;;;10.80;99.90;;;;;;4991834;28;20255;-77
2020/12/15 08:32:47;;;;;;;21.40;13.77;;;10.90;99.90;;;;;;4992304;28;20307;-74
2020/12/15 08:35:14;;;;;;;22.30;15.20;;;10.80;99.90;;;;;;4991016;28;20594;-75
2020/12/15 08:37:42;;;;;;;21.87;15.27;;;10.90;99.90;;;;;;4991950;28;20205;-77
2020/12/15 08:40:11;;;;;;;19.30;13.63;;;11.00;99.90;;;;;;4987086;28;20247;-78
2020/12/15 08:42:42;;;;;;;19.87;14.17;;;11.00;99.90;;;;;;4988856;28;20779;-76
2020/12/15 08:45:13;;;;;;;19.67;12.90;;;11.00;99.90;;;;;;4988287;28;20202;-76
2020/12/15 08:47:43;;;;;;;25.43;13.57;;;11.10;99.90;;;;;;4991570;28;20255;-77
2020/12/15 08:50:11;;;;;;;24.47;14.40;;;11.10;99.90;;;;;;4991702;28;20619;-76
2020/12/15 08:52:38;;;;;;;16.20;13.33;;;11.10;99.90;;;;;;4992101;28;20209;-78
2020/12/15 08:55:04;;;;;;;17.63;12.30;;;11.10;99.90;;;;;;4990814;28;20208;-78
2020/12/15 08:57:31;;;;;;;21.83;14.87;;;11.10;99.90;;;;;;4989733;28;20746;-78
2020/12/15 09:00:09;;;;;;;29.03;20.07;;;11.00;99.90;;;;;;4991061;28;20208;-78
2020/12/15 09:02:35;;;;;;;21.37;12.90;;;11.10;99.90;;;;;;4991289;28;20730;-79
2020/12/15 09:05:08;;;;;;;17.80;13.80;;;11.10;99.90;;;;;;4990357;28;20610;-77
2020/12/15 09:07:36;;;;;;;19.20;13.43;;;11.10;99.90;;;;;;4978573;28;20201;-78
2020/12/15 09:10:20;;;;;;;17.93;13.77;;;11.10;99.90;;;;;;4991125;28;20270;-77
2020/12/15 09:12:47;;;;;;;19.33;12.20;;;11.20;99.90;;;;;;4991793;28;20240;-78
2020/12/15 09:15:15;;;;;;;16.23;11.80;;;11.20;99.90;;;;;;4991071;28;20276;-78
2020/12/15 09:17:41;;;;;;;22.57;12.90;;;11.30;99.90;;;;;;4991486;28;20219;-80
2020/12/15 09:20:09;;;;;;;17.43;12.27;;;11.20;99.90;;;;;;4991285;28;20213;-77
2020/12/15 09:22:37;;;;;;;21.80;12.47;;;11.10;99.90;;;;;;4991202;28;20319;-77
2020/12/15 09:25:14;;;;;;;22.10;14.10;;;11.10;99.90;;;;;;4990676;28;20213;-77
2020/12/15 09:27:45;;;;;;;20.20;13.70;;;11.00;99.90;;;;;;4991008;28;20651;-76
2020/12/15 09:30:12;;;;;;;17.53;13.43;;;10.90;99.90;;;;;;4990828;28;20219;-77
2020/12/15 09:32:41;;;;;;;19.23;14.97;;;10.80;99.90;;;;;;4990450;28;20308;-77
2020/12/15 09:35:08;;;;;;;23.23;12.97;;;10.80;99.90;;;;;;4990995;28;20208;-77
2020/12/15 09:37:35;;;;;;;21.00;13.00;;;10.80;99.90;;;;;;4990979;28;20263;-77
2020/12/15 09:40:04;;;;;;;18.43;12.40;;;10.80;99.90;;;;;;4991194;28;20291;-77
2020/12/15 09:42:31;;;;;;;17.60;13.67;;;10.90;99.90;;;;;;4991238;28;20246;-77
2020/12/15 09:44:58;;;;;;;16.73;14.87;;;10.80;99.90;;;;;;4991221;28;20258;-77
2020/12/15 09:47:24;;;;;;;19.83;14.80;;;10.80;99.90;;;;;;4991317;28;20244;-77
2020/12/15 09:49:51;;;;;;;23.07;13.80;;;10.80;99.90;;;;;;4991432;28;20291;-78
2020/12/15 09:52:18;;;;;;;18.03;13.47;;;10.90;99.90;;;;;;4991313;28;20205;-77
2020/12/15 09:54:44;;;;;;;18.43;13.70;;;10.90;99.90;;;;;;4990708;28;20253;-77
2020/12/15 09:57:11;;;;;;;17.30;12.97;;;10.90;99.90;;;;;;4991129;28;20204;-78
2020/12/15 09:59:37;;;;;;;18.57;11.23;;;11.00;99.90;;;;;;4990994;28;20262;-78
2020/12/15 10:02:04;;;;;;;14.07;9.85;;;10.90;99.90;;;;;;4990605;28;20232;-77
2020/12/15 10:04:30;;;;;;;11.93;9.53;;;10.90;99.90;;;;;;4991056;28;20236;-78
2020/12/15 10:06:58;;;;;;;13.63;9.37;;;11.00;99.90;;;;;;4990461;28;20656;-77
2020/12/15 10:09:24;;;;;;;10.80;9.70;;;10.90;99.90;;;;;;4991184;28;20287;-77
2020/12/15 10:11:51;;;;;;;11.77;10.03;;;11.00;99.90;;;;;;4991529;28;20221;-77
2020/12/15 10:14:17;;;;;;;9.80;8.57;;;10.90;99.90;;;;;;4991099;28;20212;-78
2020/12/15 10:16:44;;;;;;;12.90;9.43;;;10.90;99.90;;;;;;4990931;28;20213;-77
2020/12/15 10:19:11;;;;;;;14.83;10.23;;;10.90;99.90;;;;;;4990252;28;20236;-79
2020/12/15 10:21:37;;;;;;;15.03;11.40;;;10.90;99.90;;;;;;4991477;28;20232;-78
2020/12/15 10:24:05;;;;;;;12.97;10.50;;;10.90;99.90;;;;;;4993954;28;20248;-78
2020/12/15 10:26:31;;;;;;;16.83;12.33;;;10.90;99.90;;;;;;4995153;28;20208;-79
2020/12/15 10:28:58;;;;;;;22.43;13.97;;;10.90;99.90;;;;;;4993839;28;20768;-79
2020/12/15 10:31:25;;;;;;;16.07;10.23;;;11.00;99.90;;;;;;4994960;28;20252;-78
2020/12/15 10:33:51;;;;;;;11.27;8.97;;;11.00;99.90;;;;;;4995198;28;20216;-79
2020/12/15 10:36:18;;;;;;;9.13;7.50;;;11.10;99.90;;;;;;4994052;28;20201;-78
2020/12/15 10:38:45;;;;;;;9.80;6.13;;;11.20;99.90;;;;;;4994856;28;20216;-78
2020/12/15 10:41:13;;;;;;;8.50;7.07;;;11.20;99.90;;;;;;4994030;28;20310;-79
2020/12/15 10:43:39;;;;;;;7.00;5.17;;;11.20;99.90;;;;;;4994462;28;20240;-79
2020/12/15 10:46:06;;;;;;;7.00;6.30;;;11.30;99.90;;;;;;4994040;28;20231;-78
2020/12/15 10:48:32;;;;;;;8.77;6.03;;;11.30;99.90;;;;;;4994423;28;20283;-78
2020/12/15 10:50:59;;;;;;;14.30;8.30;;;11.30;99.90;;;;;;4994103;28;20251;-78
2020/12/15 10:53:25;;;;;;;13.53;8.70;;;11.40;99.90;;;;;;4994662;28;20325;-78
2020/12/15 10:55:52;;;;;;;11.83;7.37;;;11.50;99.90;;;;;;4993209;28;20253;-78
2020/12/15 10:58:20;;;;;;;10.83;7.90;;;11.60;99.90;;;;;;4993706;28;20749;-78
2020/12/15 11:00:46;;;;;;;5.73;5.13;;;11.50;99.90;;;;;;4994054;28;20209;-78
2020/12/15 11:03:13;;;;;;;8.75;5.82;;;11.50;99.90;;;;;;4993540;28;20224;-77
2020/12/15 11:05:39;;;;;;;8.18;6.20;;;11.70;99.90;;;;;;4993757;28;20690;-78
2020/12/15 11:08:06;;;;;;;8.77;6.67;;;11.80;99.90;;;;;;4993848;28;20213;-78
2020/12/15 11:10:32;;;;;;;7.70;6.50;;;11.80;99.90;;;;;;4992930;28;20213;-78
2020/12/15 11:13:01;;;;;;;12.20;7.97;;;11.90;99.90;;;;;;4992033;28;20217;-78
2020/12/15 11:15:29;;;;;;;12.85;7.18;;;11.90;99.90;;;;;;4993677;28;20213;-78
2020/12/15 11:17:56;;;;;;;9.47;5.60;;;11.80;99.90;;;;;;4993372;28;20296;-78
2020/12/15 11:20:22;;;;;;;6.93;6.23;;;11.70;99.90;;;;;;4993730;28;20220;-78
2020/12/15 11:22:48;;;;;;;6.30;5.47;;;11.70;99.90;;;;;;4992187;28;20272;-78
2020/12/15 11:25:17;;;;;;;6.18;5.55;;;11.70;99.90;;;;;;4982976;28;20348;-78
2020/12/15 11:27:44;;;;;;;7.28;5.80;;;11.80;99.90;;;;;;4993340;28;20213;-78
2020/12/15 11:30:11;;;;;;;6.38;4.95;;;11.80;99.90;;;;;;4991798;28;20209;-78
2020/12/15 11:32:39;;;;;;;6.63;5.35;;;11.80;99.90;;;;;;4992463;28;20216;-78
2020/12/15 11:35:06;;;;;;;42.60;32.83;;;11.90;99.90;;;;;;4993284;28;20212;-78
2020/12/15 11:37:33;;;;;;;8.27;6.10;;;12.10;99.90;;;;;;4993207;28;20236;-78
2020/12/15 11:40:00;;;;;;;7.93;5.32;;;12.10;99.90;;;;;;4992708;28;20229;-78
2020/12/15 11:42:27;;;;;;;7.65;5.55;;;12.10;99.90;;;;;;4993093;28;20237;-78
2020/12/15 11:44:54;;;;;;;7.15;4.57;;;12.00;99.90;;;;;;4993016;28;20292;-78
2020/12/15 11:47:23;;;;;;;5.47;4.22;;;12.00;99.90;;;;;;4993335;28;20216;-78
2020/12/15 11:49:51;;;;;;;5.57;5.07;;;12.00;99.90;;;;;;4993500;28;20300;-78
2020/12/15 11:52:17;;;;;;;6.60;5.60;;;11.90;99.90;;;;;;4993078;28;20213;-78
2020/12/15 11:54:44;;;;;;;6.83;5.43;;;11.80;99.90;;;;;;4992245;28;20695;-78
2020/12/15 11:57:14;;;;;;;5.28;4.55;;;11.70;99.90;;;;;;4992565;28;20201;-78
2020/12/15 11:59:40;;;;;;;6.00;5.40;;;11.60;99.90;;;;;;4992885;28;20299;-78
2020/12/15 12:02:07;;;;;;;9.50;6.27;;;11.50;99.90;;;;;;4992474;28;21199;-78
2020/12/15 12:04:33;;;;;;;6.77;5.43;;;11.50;99.90;;;;;;4993099;28;20682;-78
2020/12/15 12:07:01;;;;;;;14.20;7.50;;;11.50;99.90;;;;;;4992646;28;20208;-79
2020/12/15 12:09:27;;;;;;;9.50;6.73;;;11.60;99.90;;;;;;4989030;28;20217;-78
2020/12/15 12:11:53;;;;;;;7.63;5.63;;;11.90;99.90;;;;;;4991463;28;20236;-78
2020/12/15 12:14:20;;;;;;;5.75;4.65;;;11.80;99.90;;;;;;4991840;28;20207;-78
2020/12/15 12:16:46;;;;;;;6.40;4.73;;;11.90;99.90;;;;;;4990344;28;20247;-80
2020/12/15 12:19:13;;;;;;;6.20;3.93;;;12.10;99.90;;;;;;4991345;28;20227;-79
2020/12/15 12:21:40;;;;;;;5.22;4.13;;;12.00;99.90;;;;;;4990648;28;20264;-78
2020/12/15 12:24:07;;;;;;;4.97;4.43;;;12.00;99.90;;;;;;4990692;28;20216;-78
2020/12/15 12:26:34;;;;;;;5.65;5.10;;;12.10;99.90;;;;;;4988629;28;20742;-78
2020/12/15 12:29:01;;;;;;;7.95;5.60;;;12.10;99.90;;;;;;4990998;28;20241;-79
2020/12/15 12:31:27;;;;;;;5.40;4.80;;;12.30;99.90;;;;;;4992242;28;20259;-79
2020/12/15 12:33:54;;;;;;;6.13;5.47;;;12.30;99.90;;;;;;4992125;28;20220;-79
2020/12/15 12:36:21;;;;;;;5.80;5.25;;;12.30;99.90;;;;;;4991070;28;20296;-79
2020/12/15 12:38:48;;;;;;;5.83;4.93;;;12.00;99.90;;;;;;4989207;28;20211;-78